Terminal Aerodrome Forecast
Issued by NWS Binghamton, NY

Home | Current Version | Previous Version | Text Only | Print | Product List | Glossary On
Versions: 1 2 3 4 5 6 7 8 9 10 11 12 13 14 15 16 17 18 19 20 21 22 23 24 25 26 27 28 29 30
000
FTUS41 KBGM 061516 AAA
TAFAVP
TAF AMD
KAVP 061516Z 0615/0712 03008KT P6SM -SHRA OVC025
      TEMPO 0615/0617 4SM RA BR OVC015
     FM061700 02006KT 5SM -SHRA OVC012
      TEMPO 0618/0622 3SM -SHRA OVC009
     FM070200 05006KT P6SM -SHRA OVC012
     FM070600 VRB03KT P6SM OVC009=

USA.gov is the U.S. government's official web portal to all federal, state and local government web resources and services.